<?xml version="1.0" encoding="UTF-8" standalone="no" ?>
<gpx xmlns="http://www.topografix.com/GPX/1/1" xmlns:xsi="http://www.w3.org/2001/XMLSchema-instance" xsi:schemaLocation="http://www.topografix.com/GPX/1/1 http://www.topografix.com/GPX/1/1/gpx.xsd" version="1.1" creator="VisuGPX - https://www.visugpx.com">
  <metadata>
    <name>Vacances 2021</name>
  </metadata>
  <trk>
    <name><![CDATA[Journal actif: 2021-07-23 09:40]]></name>
    <trkseg>
      <trkpt lat="49.24757" lon="6.1372">
        <ele>201.05</ele>
        <time>2021-07-23T11:40:57Z</time>
      </trkpt>
      <trkpt lat="49.24758" lon="6.13719">
        <ele>200.57</ele>
        <time>2021-07-23T11:44:27Z</time>
      </trkpt>
      <trkpt lat="49.24763" lon="6.13721">
        <ele>200.09</ele>
        <time>2021-07-23T11:44:32Z</time>
      </trkpt>
      <trkpt lat="49.24765" lon="6.13727">
        <ele>199.61</ele>
        <time>2021-07-23T11:44:36Z</time>
      </trkpt>
      <trkpt lat="49.24774" lon="6.13748">
        <ele>198.65</ele>
        <time>2021-07-23T11:44:51Z</time>
      </trkpt>
      <trkpt lat="49.24775" lon="6.13753">
        <ele>198.65</ele>
        <time>2021-07-23T11:45:06Z</time>
      </trkpt>
      <trkpt lat="49.24768" lon="6.13763">
        <ele>197.69</ele>
        <time>2021-07-23T11:45:22Z</time>
      </trkpt>
      <trkpt lat="49.24767" lon="6.13765">
        <ele>197.69</ele>
        <time>2021-07-23T11:46:00Z</time>
      </trkpt>
      <trkpt lat="49.24767" lon="6.13766">
        <ele>197.69</ele>
        <time>2021-07-23T11:49:08Z</time>
      </trkpt>
      <trkpt lat="49.24767" lon="6.13767">
        <ele>197.21</ele>
        <time>2021-07-23T11:52:15Z</time>
      </trkpt>
      <trkpt lat="49.2477" lon="6.13764">
        <ele>196.73</ele>
        <time>2021-07-23T11:54:47Z</time>
      </trkpt>
      <trkpt lat="49.24773" lon="6.1376">
        <ele>196.73</ele>
        <time>2021-07-23T11:55:08Z</time>
      </trkpt>
      <trkpt lat="49.24774" lon="6.13762">
        <ele>196.73</ele>
        <time>2021-07-23T11:55:11Z</time>
      </trkpt>
      <trkpt lat="49.24786" lon="6.13776">
        <ele>197.21</ele>
        <time>2021-07-23T11:55:26Z</time>
      </trkpt>
      <trkpt lat="49.24786" lon="6.13775">
        <ele>197.69</ele>
        <time>2021-07-23T11:55:30Z</time>
      </trkpt>
      <trkpt lat="49.24791" lon="6.13775">
        <ele>198.17</ele>
        <time>2021-07-23T11:55:34Z</time>
      </trkpt>
      <trkpt lat="49.24795" lon="6.13776">
        <ele>198.17</ele>
        <time>2021-07-23T11:55:37Z</time>
      </trkpt>
      <trkpt lat="49.24808" lon="6.13788">
        <ele>199.13</ele>
        <time>2021-07-23T11:55:53Z</time>
      </trkpt>
      <trkpt lat="49.24808" lon="6.13789">
        <ele>198.65</ele>
        <time>2021-07-23T11:56:37Z</time>
      </trkpt>
      <trkpt lat="49.24809" lon="6.13798">
        <ele>198.65</ele>
        <time>2021-07-23T11:57:03Z</time>
      </trkpt>
      <trkpt lat="49.24806" lon="6.13805">
        <ele>198.65</ele>
        <time>2021-07-23T11:57:07Z</time>
      </trkpt>
      <trkpt lat="49.24802" lon="6.13813">
        <ele>198.17</ele>
        <time>2021-07-23T11:57:21Z</time>
      </trkpt>
      <trkpt lat="49.24793" lon="6.13822">
        <ele>197.69</ele>
        <time>2021-07-23T11:57:36Z</time>
      </trkpt>
      <trkpt lat="49.24779" lon="6.13836">
        <ele>197.69</ele>
        <time>2021-07-23T11:57:54Z</time>
      </trkpt>
      <trkpt lat="49.24748" lon="6.13831">
        <ele>198.17</ele>
        <time>2021-07-23T11:58:05Z</time>
      </trkpt>
      <trkpt lat="49.24747" lon="6.13831">
        <ele>197.69</ele>
        <time>2021-07-23T11:58:06Z</time>
      </trkpt>
      <trkpt lat="49.2474" lon="6.13838">
        <ele>197.69</ele>
        <time>2021-07-23T11:58:07Z</time>
      </trkpt>
      <trkpt lat="49.24737" lon="6.13855">
        <ele>197.21</ele>
        <time>2021-07-23T11:58:08Z</time>
      </trkpt>
      <trkpt lat="49.24738" lon="6.13857">
        <ele>197.21</ele>
        <time>2021-07-23T11:58:09Z</time>
      </trkpt>
      <trkpt lat="49.24755" lon="6.13861">
        <ele>197.21</ele>
        <time>2021-07-23T11:58:10Z</time>
      </trkpt>
      <trkpt lat="49.24755" lon="6.13861">
        <ele>197.21</ele>
        <time>2021-07-23T11:58:11Z</time>
      </trkpt>
      <trkpt lat="49.24758" lon="6.13868">
        <ele>197.21</ele>
        <time>2021-07-23T11:58:13Z</time>
      </trkpt>
      <trkpt lat="49.24763" lon="6.13881">
        <ele>197.21</ele>
        <time>2021-07-23T11:58:14Z</time>
      </trkpt>
      <trkpt lat="49.24763" lon="6.13881">
        <ele>197.21</ele>
        <time>2021-07-23T11:58:15Z</time>
      </trkpt>
      <trkpt lat="49.24825" lon="6.14019">
        <ele>198.17</ele>
        <time>2021-07-23T11:58:29Z</time>
      </trkpt>
      <trkpt lat="49.24907" lon="6.14204">
        <ele>196.73</ele>
        <time>2021-07-23T11:58:43Z</time>
      </trkpt>
      <trkpt lat="49.24923" lon="6.14252">
        <ele>192.88</ele>
        <time>2021-07-23T11:58:46Z</time>
      </trkpt>
      <trkpt lat="49.24925" lon="6.14268">
        <ele>192.88</ele>
        <time>2021-07-23T11:58:47Z</time>
      </trkpt>
      <trkpt lat="49.24928" lon="6.14285">
        <ele>191.92</ele>
        <time>2021-07-23T11:58:48Z</time>
      </trkpt>
      <trkpt lat="49.2493" lon="6.14299">
        <ele>190.96</ele>
        <time>2021-07-23T11:58:49Z</time>
      </trkpt>
      <trkpt lat="49.24929" lon="6.14323">
        <ele>190.48</ele>
        <time>2021-07-23T11:58:50Z</time>
      </trkpt>
      <trkpt lat="49.24929" lon="6.14334">
        <ele>190.48</ele>
        <time>2021-07-23T11:58:51Z</time>
      </trkpt>
      <trkpt lat="49.24929" lon="6.14334">
        <ele>190.48</ele>
        <time>2021-07-23T11:58:52Z</time>
      </trkpt>
      <trkpt lat="49.24931" lon="6.14345">
        <ele>190.48</ele>
        <time>2021-07-23T11:58:53Z</time>
      </trkpt>
      <trkpt lat="49.24934" lon="6.14354">
        <ele>190.96</ele>
        <time>2021-07-23T11:58:54Z</time>
      </trkpt>
      <trkpt lat="49.24937" lon="6.14364">
        <ele>190.96</ele>
        <time>2021-07-23T11:58:55Z</time>
      </trkpt>
      <trkpt lat="49.2494" lon="6.14373">
        <ele>190.96</ele>
        <time>2021-07-23T11:58:56Z</time>
      </trkpt>
      <trkpt lat="49.24941" lon="6.14378">
        <ele>190.48</ele>
        <time>2021-07-23T11:58:57Z</time>
      </trkpt>
      <trkpt lat="49.24942" lon="6.14402">
        <ele>190.96</ele>
        <time>2021-07-23T11:58:59Z</time>
      </trkpt>
      <trkpt lat="49.24945" lon="6.14409">
        <ele>190.96</ele>
        <time>2021-07-23T11:59:00Z</time>
      </trkpt>
      <trkpt lat="49.24952" lon="6.14423">
        <ele>190.48</ele>
        <time>2021-07-23T11:59:01Z</time>
      </trkpt>
      <trkpt lat="49.24952" lon="6.14423">
        <ele>190</ele>
        <time>2021-07-23T11:59:02Z</time>
      </trkpt>
      <trkpt lat="49.24966" lon="6.14426">
        <ele>190</ele>
        <time>2021-07-23T11:59:03Z</time>
      </trkpt>
      <trkpt lat="49.24972" lon="6.14427">
        <ele>189.52</ele>
        <time>2021-07-23T11:59:04Z</time>
      </trkpt>
      <trkpt lat="49.24978" lon="6.14425">
        <ele>189.52</ele>
        <time>2021-07-23T11:59:05Z</time>
      </trkpt>
      <trkpt lat="49.24983" lon="6.14419">
        <ele>189.04</ele>
        <time>2021-07-23T11:59:06Z</time>
      </trkpt>
      <trkpt lat="49.24988" lon="6.14413">
        <ele>189.04</ele>
        <time>2021-07-23T11:59:07Z</time>
      </trkpt>
      <trkpt lat="49.2499" lon="6.14405">
        <ele>189.04</ele>
        <time>2021-07-23T11:59:08Z</time>
      </trkpt>
      <trkpt lat="49.2499" lon="6.14405">
        <ele>189.04</ele>
        <time>2021-07-23T11:59:09Z</time>
      </trkpt>
      <trkpt lat="49.24992" lon="6.14396">
        <ele>189.04</ele>
        <time>2021-07-23T11:59:10Z</time>
      </trkpt>
      <trkpt lat="49.24992" lon="6.14388">
        <ele>189.04</ele>
        <time>2021-07-23T11:59:11Z</time>
      </trkpt>
      <trkpt lat="49.24992" lon="6.14378">
        <ele>189.52</ele>
        <time>2021-07-23T11:59:12Z</time>
      </trkpt>
      <trkpt lat="49.24991" lon="6.14369">
        <ele>189.52</ele>
        <time>2021-07-23T11:59:13Z</time>
      </trkpt>
      <trkpt lat="49.2499" lon="6.1436">
        <ele>189.52</ele>
        <time>2021-07-23T11:59:14Z</time>
      </trkpt>
      <trkpt lat="49.24989" lon="6.14338">
        <ele>189.52</ele>
        <time>2021-07-23T11:59:15Z</time>
      </trkpt>
      <trkpt lat="49.24989" lon="6.14338">
        <ele>189.52</ele>
        <time>2021-07-23T11:59:16Z</time>
      </trkpt>
      <trkpt lat="49.24982" lon="6.14211">
        <ele>182.31</ele>
        <time>2021-07-23T11:59:25Z</time>
      </trkpt>
      <trkpt lat="49.24978" lon="6.1401">
        <ele>169.81</ele>
        <time>2021-07-23T11:59:35Z</time>
      </trkpt>
      <trkpt lat="49.25001" lon="6.13775">
        <ele>163.08</ele>
        <time>2021-07-23T11:59:45Z</time>
      </trkpt>
      <trkpt lat="49.25071" lon="6.13643">
        <ele>160.68</ele>
        <time>2021-07-23T11:59:52Z</time>
      </trkpt>
      <trkpt lat="49.25141" lon="6.13593">
        <ele>160.2</ele>
        <time>2021-07-23T11:59:57Z</time>
      </trkpt>
      <trkpt lat="49.25155" lon="6.13587">
        <ele>159.72</ele>
        <time>2021-07-23T11:59:58Z</time>
      </trkpt>
      <trkpt lat="49.25297" lon="6.13544">
        <ele>162.6</ele>
        <time>2021-07-23T12:00:08Z</time>
      </trkpt>
      <trkpt lat="49.25368" lon="6.13514">
        <ele>162.6</ele>
        <time>2021-07-23T12:00:16Z</time>
      </trkpt>
      <trkpt lat="49.25378" lon="6.13511">
        <ele>162.6</ele>
        <time>2021-07-23T12:00:17Z</time>
      </trkpt>
      <trkpt lat="49.25397" lon="6.13508">
        <ele>161.64</ele>
        <time>2021-07-23T12:00:18Z</time>
      </trkpt>
      <trkpt lat="49.25397" lon="6.13508">
        <ele>161.64</ele>
        <time>2021-07-23T12:00:19Z</time>
      </trkpt>
      <trkpt lat="49.25403" lon="6.1351">
        <ele>161.64</ele>
        <time>2021-07-23T12:00:20Z</time>
      </trkpt>
      <trkpt lat="49.25409" lon="6.13512">
        <ele>162.12</ele>
        <time>2021-07-23T12:00:21Z</time>
      </trkpt>
      <trkpt lat="49.25414" lon="6.13515">
        <ele>162.6</ele>
        <time>2021-07-23T12:00:22Z</time>
      </trkpt>
      <trkpt lat="49.25418" lon="6.13516">
        <ele>163.08</ele>
        <time>2021-07-23T12:00:23Z</time>
      </trkpt>
      <trkpt lat="49.25423" lon="6.13519">
        <ele>163.08</ele>
        <time>2021-07-23T12:00:24Z</time>
      </trkpt>
      <trkpt lat="49.25431" lon="6.13536">
        <ele>163.08</ele>
        <time>2021-07-23T12:00:30Z</time>
      </trkpt>
      <trkpt lat="49.25432" lon="6.13564">
        <ele>163.08</ele>
        <time>2021-07-23T12:00:33Z</time>
      </trkpt>
      <trkpt lat="49.25436" lon="6.13573">
        <ele>162.6</ele>
        <time>2021-07-23T12:00:34Z</time>
      </trkpt>
      <trkpt lat="49.2544" lon="6.13581">
        <ele>163.08</ele>
        <time>2021-07-23T12:00:35Z</time>
      </trkpt>
      <trkpt lat="49.25446" lon="6.1359">
        <ele>163.08</ele>
        <time>2021-07-23T12:00:36Z</time>
      </trkpt>
      <trkpt lat="49.25452" lon="6.13593">
        <ele>163.08</ele>
        <time>2021-07-23T12:00:37Z</time>
      </trkpt>
      <trkpt lat="49.25459" lon="6.13596">
        <ele>163.08</ele>
        <time>2021-07-23T12:00:38Z</time>
      </trkpt>
      <trkpt lat="49.25467" lon="6.13596">
        <ele>163.08</ele>
        <time>2021-07-23T12:00:39Z</time>
      </trkpt>
      <trkpt lat="49.25474" lon="6.13593">
        <ele>162.6</ele>
        <time>2021-07-23T12:00:40Z</time>
      </trkpt>
      <trkpt lat="49.25482" lon="6.13588">
        <ele>162.12</ele>
        <time>2021-07-23T12:00:41Z</time>
      </trkpt>
      <trkpt lat="49.25487" lon="6.1358">
        <ele>162.12</ele>
        <time>2021-07-23T12:00:42Z</time>
      </trkpt>
      <trkpt lat="49.25493" lon="6.1357">
        <ele>162.12</ele>
        <time>2021-07-23T12:00:43Z</time>
      </trkpt>
      <trkpt lat="49.25496" lon="6.13559">
        <ele>162.12</ele>
        <time>2021-07-23T12:00:44Z</time>
      </trkpt>
      <trkpt lat="49.25497" lon="6.13547">
        <ele>162.12</ele>
        <time>2021-07-23T12:00:45Z</time>
      </trkpt>
      <trkpt lat="49.25497" lon="6.13536">
        <ele>162.12</ele>
        <time>2021-07-23T12:00:46Z</time>
      </trkpt>
      <trkpt lat="49.25497" lon="6.13531">
        <ele>162.12</ele>
        <time>2021-07-23T12:00:47Z</time>
      </trkpt>
      <trkpt lat="49.25488" lon="6.13504">
        <ele>162.12</ele>
        <time>2021-07-23T12:00:48Z</time>
      </trkpt>
      <trkpt lat="49.25491" lon="6.13495">
        <ele>162.12</ele>
        <time>2021-07-23T12:00:49Z</time>
      </trkpt>
      <trkpt lat="49.25513" lon="6.13344">
        <ele>161.64</ele>
        <time>2021-07-23T12:01:00Z</time>
      </trkpt>
      <trkpt lat="49.25537" lon="6.13085">
        <ele>160.68</ele>
        <time>2021-07-23T12:01:16Z</time>
      </trkpt>
      <trkpt lat="49.25541" lon="6.13035">
        <ele>160.68</ele>
        <time>2021-07-23T12:01:20Z</time>
      </trkpt>
      <trkpt lat="49.25542" lon="6.13029">
        <ele>160.68</ele>
        <time>2021-07-23T12:01:21Z</time>
      </trkpt>
      <trkpt lat="49.25542" lon="6.13029">
        <ele>160.68</ele>
        <time>2021-07-23T12:01:22Z</time>
      </trkpt>
      <trkpt lat="49.2556" lon="6.1302">
        <ele>160.68</ele>
        <time>2021-07-23T12:01:25Z</time>
      </trkpt>
      <trkpt lat="49.25565" lon="6.13011">
        <ele>160.68</ele>
        <time>2021-07-23T12:01:26Z</time>
      </trkpt>
      <trkpt lat="49.25571" lon="6.12991">
        <ele>160.68</ele>
        <time>2021-07-23T12:01:29Z</time>
      </trkpt>
      <trkpt lat="49.25575" lon="6.12986">
        <ele>160.68</ele>
        <time>2021-07-23T12:01:30Z</time>
      </trkpt>
      <trkpt lat="49.25578" lon="6.12981">
        <ele>160.68</ele>
        <time>2021-07-23T12:01:31Z</time>
      </trkpt>
      <trkpt lat="49.25581" lon="6.12977">
        <ele>160.68</ele>
        <time>2021-07-23T12:01:32Z</time>
      </trkpt>
      <trkpt lat="49.25585" lon="6.12975">
        <ele>160.68</ele>
        <time>2021-07-23T12:01:33Z</time>
      </trkpt>
      <trkpt lat="49.2559" lon="6.12973">
        <ele>160.68</ele>
        <time>2021-07-23T12:01:34Z</time>
      </trkpt>
      <trkpt lat="49.25616" lon="6.12959">
        <ele>161.64</ele>
        <time>2021-07-23T12:01:39Z</time>
      </trkpt>
      <trkpt lat="49.25621" lon="6.12957">
        <ele>161.64</ele>
        <time>2021-07-23T12:01:40Z</time>
      </trkpt>
      <trkpt lat="49.25624" lon="6.12956">
        <ele>161.64</ele>
        <time>2021-07-23T12:01:41Z</time>
      </trkpt>
      <trkpt lat="49.25628" lon="6.1296">
        <ele>162.12</ele>
        <time>2021-07-23T12:01:42Z</time>
      </trkpt>
      <trkpt lat="49.25639" lon="6.12949">
        <ele>161.64</ele>
        <time>2021-07-23T12:01:43Z</time>
      </trkpt>
      <trkpt lat="49.25639" lon="6.12949">
        <ele>161.64</ele>
        <time>2021-07-23T12:01:44Z</time>
      </trkpt>
    </trkseg>
  </trk>
</gpx>